Terminal Aerodrome Forecast
Issued by NWS

Home | Current Version | Previous Version | Text Only | Print | Product List | Glossary Off
Versions: 1 2 3 4 5 6 7 8 9 10 11 12 13 14 15 16 17

000
FTUS43 KMPX 291445 AAA
TAFRWF
TAF AMD
KRWF 291445Z 2915/3012 06005KT P6SM BKN008
     FM291530 06007KT P6SM BKN015
      TEMPO 2916/2918 SCT015 BKN040
     FM291800 07008KT P6SM BKN050
     FM300200 07008KT P6SM SCT250=

USA.gov is the U.S. government's official web portal to all federal, state and local government web resources and services.